sensor_id;sensor_type;location;lat;lon;timestamp;pressure;altitude;pressure_sealevel;temperature;humidity
51449;BME280;37520;46.570;14.268;2022-09-17T00:04:59;94945.09;;;11.61;100.00
51449;BME280;37520;46.570;14.268;2022-09-17T00:11:41;94962.84;;;11.56;100.00
51449;BME280;37520;46.570;14.268;2022-09-17T00:18:23;94973.97;;;11.48;100.00
51449;BME280;37520;46.570;14.268;2022-09-17T00:25:06;94971.84;;;11.44;100.00
51449;BME280;37520;46.570;14.268;2022-09-17T00:31:48;94945.38;;;11.39;100.00
51449;BME280;37520;46.570;14.268;2022-09-17T00:38:30;94959.94;;;11.32;100.00
51449;BME280;37520;46.570;14.268;2022-09-17T00:45:12;94973.44;;;11.35;100.00
51449;BME280;37520;46.570;14.268;2022-09-17T00:52:05;94948.81;;;11.29;100.00
51449;BME280;37520;46.570;14.268;2022-09-17T00:58:50;94952.22;;;11.20;100.00
51449;BME280;37520;46.570;14.268;2022-09-17T01:33:59;94921.53;;;11.03;100.00
51449;BME280;37520;46.570;14.268;2022-09-17T01:48:19;94931.06;;;10.99;100.00
51449;BME280;37520;46.570;14.268;2022-09-17T01:55:04;94919.94;;;10.92;100.00
51449;BME280;37520;46.570;14.268;2022-09-17T02:01:52;94924.19;;;10.93;100.00
51449;BME280;37520;46.570;14.268;2022-09-17T02:08:40;94912.00;;;10.92;100.00
51449;BME280;37520;46.570;14.268;2022-09-17T02:15:37;94903.81;;;10.88;100.00
51449;BME280;37520;46.570;14.268;2022-09-17T02:23:10;94912.28;;;10.90;100.00
51449;BME280;37520;46.570;14.268;2022-09-17T02:29:34;94902.75;;;10.89;100.00
51449;BME280;37520;46.570;14.268;2022-09-17T02:36:16;94890.56;;;10.88;100.00
51449;BME280;37520;46.570;14.268;2022-09-17T03:03:46;94899.56;;;10.77;100.00
51449;BME280;37520;46.570;14.268;2022-09-17T03:10:31;94890.31;;;10.74;100.00
51449;BME280;37520;46.570;14.268;2022-09-17T03:17:13;94883.16;;;10.75;100.00
51449;BME280;37520;46.570;14.268;2022-09-17T03:23:54;94912.25;;;10.80;100.00
51449;BME280;37520;46.570;14.268;2022-09-17T03:30:36;94905.63;;;10.77;100.00
51449;BME280;37520;46.570;14.268;2022-09-17T03:37:17;94860.69;;;10.72;100.00
51449;BME280;37520;46.570;14.268;2022-09-17T03:43:58;94842.69;;;10.64;100.00
51449;BME280;37520;46.570;14.268;2022-09-17T03:50:39;94891.34;;;10.63;100.00
51449;BME280;37520;46.570;14.268;2022-09-17T03:57:20;94902.41;;;10.55;100.00
51449;BME280;37520;46.570;14.268;2022-09-17T04:04:03;94908.47;;;10.55;100.00
51449;BME280;37520;46.570;14.268;2022-09-17T04:10:44;94904.25;;;10.54;100.00
51449;BME280;37520;46.570;14.268;2022-09-17T04:17:26;94912.72;;;10.56;100.00
51449;BME280;37520;46.570;14.268;2022-09-17T04:24:07;94925.16;;;10.61;100.00
51449;BME280;37520;46.570;14.268;2022-09-17T04:30:49;94893.72;;;10.59;100.00
51449;BME280;37520;46.570;14.268;2022-09-17T04:37:30;94910.06;;;10.61;100.00
51449;BME280;37520;46.570;14.268;2022-09-17T04:44:12;94926.97;;;10.60;100.00
51449;BME280;37520;46.570;14.268;2022-09-17T04:50:53;94917.22;;;10.61;100.00
51449;BME280;37520;46.570;14.268;2022-09-17T04:57:35;94916.19;;;10.62;100.00
51449;BME280;37520;46.570;14.268;2022-09-17T05:04:17;94940.47;;;10.59;100.00
51449;BME280;37520;46.570;14.268;2022-09-17T05:10:58;94965.03;;;10.54;100.00
51449;BME280;37520;46.570;14.268;2022-09-17T05:17:39;94945.47;;;10.55;100.00
51449;BME280;37520;46.570;14.268;2022-09-17T05:24:21;94956.56;;;10.52;100.00
51449;BME280;37520;46.570;14.268;2022-09-17T05:31:02;94961.34;;;10.55;100.00
51449;BME280;37520;46.570;14.268;2022-09-17T05:37:44;94945.19;;;10.46;100.00
51449;BME280;37520;46.570;14.268;2022-09-17T05:44:25;94937.50;;;10.40;100.00
51449;BME280;37520;46.570;14.268;2022-09-17T05:51:06;94904.63;;;10.20;100.00
51449;BME280;37520;46.570;14.268;2022-09-17T05:57:48;94899.63;;;10.19;100.00
51449;BME280;37520;46.570;14.268;2022-09-17T06:04:29;94886.69;;;10.22;100.00
51449;BME280;37520;46.570;14.268;2022-09-17T06:11:11;94946.91;;;10.20;100.00
51449;BME280;37520;46.570;14.268;2022-09-17T06:17:52;95004.44;;;10.13;100.00
51449;BME280;37520;46.570;14.268;2022-09-17T06:24:33;94962.91;;;10.03;100.00
51449;BME280;37520;46.570;14.268;2022-09-17T06:31:15;94951.00;;;9.95;100.00
51449;BME280;37520;46.570;14.268;2022-09-17T06:37:56;94952.59;;;10.02;100.00
51449;BME280;37520;46.570;14.268;2022-09-17T06:44:37;94953.38;;;10.02;100.00
51449;BME280;37520;46.570;14.268;2022-09-17T06:51:19;94952.59;;;10.02;100.00
51449;BME280;37520;46.570;14.268;2022-09-17T06:58:00;94977.69;;;9.99;100.00
51449;BME280;37520;46.570;14.268;2022-09-17T07:04:42;94988.16;;;9.89;100.00
51449;BME280;37520;46.570;14.268;2022-09-17T07:11:28;94972.88;;;9.91;100.00
51449;BME280;37520;46.570;14.268;2022-09-17T07:18:11;95028.56;;;9.89;100.00
51449;BME280;37520;46.570;14.268;2022-09-17T07:31:52;95010.56;;;9.86;100.00
51449;BME280;37520;46.570;14.268;2022-09-17T07:38:34;94990.25;;;9.81;100.00
51449;BME280;37520;46.570;14.268;2022-09-17T07:45:15;95023.25;;;9.84;100.00
51449;BME280;37520;46.570;14.268;2022-09-17T07:51:56;95058.28;;;9.74;100.00
51449;BME280;37520;46.570;14.268;2022-09-17T07:58:38;95090.22;;;9.73;100.00
51449;BME280;37520;46.570;14.268;2022-09-17T08:05:19;95084.19;;;9.82;100.00
51449;BME280;37520;46.570;14.268;2022-09-17T08:12:01;95052.53;;;9.82;100.00
51449;BME280;37520;46.570;14.268;2022-09-17T08:18:43;95075.75;;;9.80;100.00
51449;BME280;37520;46.570;14.268;2022-09-17T08:25:25;95087.34;;;9.79;100.00
51449;BME280;37520;46.570;14.268;2022-09-17T08:32:06;95108.47;;;9.79;100.00
51449;BME280;37520;46.570;14.268;2022-09-17T08:38:51;95112.47;;;9.82;100.00
51449;BME280;37520;46.570;14.268;2022-09-17T08:45:33;95096.88;;;9.80;100.00
51449;BME280;37520;46.570;14.268;2022-09-17T08:59:07;95095.03;;;9.81;100.00
51449;BME280;37520;46.570;14.268;2022-09-17T09:05:51;95097.06;;;9.46;100.00
51449;BME280;37520;46.570;14.268;2022-09-17T09:12:34;95081.66;;;9.60;100.00
51449;BME280;37520;46.570;14.268;2022-09-17T09:19:33;95093.56;;;9.63;100.00
51449;BME280;37520;46.570;14.268;2022-09-17T09:26:22;95056.91;;;9.66;100.00
51449;BME280;37520;46.570;14.268;2022-09-17T09:33:13;95030.75;;;9.65;100.00
51449;BME280;37520;46.570;14.268;2022-09-17T09:40:01;95041.63;;;9.74;100.00
51449;BME280;37520;46.570;14.268;2022-09-17T10:00:59;95046.44;;;9.77;100.00
51449;BME280;37520;46.570;14.268;2022-09-17T10:07:44;95063.84;;;9.78;100.00
51449;BME280;37520;46.570;14.268;2022-09-17T10:14:31;95074.16;;;9.79;100.00
51449;BME280;37520;46.570;14.268;2022-09-17T10:21:33;95065.72;;;9.82;100.00
51449;BME280;37520;46.570;14.268;2022-09-17T10:28:31;95085.75;;;9.78;100.00
51449;BME280;37520;46.570;14.268;2022-09-17T10:42:16;95079.19;;;9.81;100.00
51449;BME280;37520;46.570;14.268;2022-09-17T10:49:11;95048.31;;;9.81;100.00
51449;BME280;37520;46.570;14.268;2022-09-17T11:23:41;94984.47;;;9.90;100.00
51449;BME280;37520;46.570;14.268;2022-09-17T11:30:40;94977.41;;;10.00;100.00
51449;BME280;37520;46.570;14.268;2022-09-17T11:37:29;94979.78;;;10.02;100.00
51449;BME280;37520;46.570;14.268;2022-09-17T11:51:25;94963.50;;;10.15;100.00
51449;BME280;37520;46.570;14.268;2022-09-17T12:05:25;94953.97;;;10.14;100.00
51449;BME280;37520;46.570;14.268;2022-09-17T12:12:13;94946.13;;;10.25;100.00
51449;BME280;37520;46.570;14.268;2022-09-17T12:26:21;94949.91;;;10.39;100.00
51449;BME280;37520;46.570;14.268;2022-09-17T12:33:25;94962.63;;;10.42;100.00
51449;BME280;37520;46.570;14.268;2022-09-17T12:47:16;94987.25;;;10.53;100.00
51449;BME280;37520;46.570;14.268;2022-09-17T13:01:22;94965.84;;;10.60;99.73
51449;BME280;37520;46.570;14.268;2022-09-17T13:08:12;94963.22;;;10.65;100.00
51449;BME280;37520;46.570;14.268;2022-09-17T13:21:58;94977.75;;;10.68;100.00
51449;BME280;37520;46.570;14.268;2022-09-17T13:28:41;94968.75;;;10.58;99.82
51449;BME280;37520;46.570;14.268;2022-09-17T13:42:07;94966.91;;;10.64;100.00
51449;BME280;37520;46.570;14.268;2022-09-17T13:48:57;94975.38;;;10.61;100.00
51449;BME280;37520;46.570;14.268;2022-09-17T13:55:54;94978.56;;;10.63;100.00
51449;BME280;37520;46.570;14.268;2022-09-17T14:02:36;94964.81;;;10.71;99.21
51449;BME280;37520;46.570;14.268;2022-09-17T14:09:44;94952.16;;;10.73;100.00
51449;BME280;37520;46.570;14.268;2022-09-17T14:23:23;94939.00;;;11.04;95.10
51449;BME280;37520;46.570;14.268;2022-09-17T14:36:47;94945.09;;;11.31;91.18
51449;BME280;37520;46.570;14.268;2022-09-17T14:43:43;94945.63;;;11.38;92.84
51449;BME280;37520;46.570;14.268;2022-09-17T14:50:27;94940.88;;;11.55;90.31
51449;BME280;37520;46.570;14.268;2022-09-17T15:04:14;94941.63;;;11.82;88.09
51449;BME280;37520;46.570;14.268;2022-09-17T15:11:02;94938.97;;;12.07;90.04
51449;BME280;37520;46.570;14.268;2022-09-17T15:17:44;94937.38;;;12.06;82.50
51449;BME280;37520;46.570;14.268;2022-09-17T15:31:19;94945.81;;;12.19;92.92
51449;BME280;37520;46.570;14.268;2022-09-17T15:38:02;94941.38;;;12.04;91.19
51449;BME280;37520;46.570;14.268;2022-09-17T15:45:17;94947.19;;;11.96;95.60
51449;BME280;37520;46.570;14.268;2022-09-17T15:52:32;94952.78;;;11.78;97.33
51449;BME280;37520;46.570;14.268;2022-09-17T15:59:26;94955.69;;;11.61;97.10
51449;BME280;37520;46.570;14.268;2022-09-17T16:13:09;94972.88;;;11.38;99.34
51449;BME280;37520;46.570;14.268;2022-09-17T16:19:51;94974.22;;;11.31;100.00
51449;BME280;37520;46.570;14.268;2022-09-17T16:26:34;94974.47;;;11.24;100.00
51449;BME280;37520;46.570;14.268;2022-09-17T16:33:16;94983.19;;;11.19;100.00
51449;BME280;37520;46.570;14.268;2022-09-17T16:39:58;94985.03;;;11.08;100.00
51449;BME280;37520;46.570;14.268;2022-09-17T16:46:41;94991.63;;;10.95;100.00
51449;BME280;37520;46.570;14.268;2022-09-17T16:53:22;94988.41;;;10.83;100.00
51449;BME280;37520;46.570;14.268;2022-09-17T17:00:04;95004.19;;;10.62;100.00
51449;BME280;37520;46.570;14.268;2022-09-17T17:06:47;95005.41;;;10.44;100.00
51449;BME280;37520;46.570;14.268;2022-09-17T17:13:28;94989.41;;;10.19;100.00
51449;BME280;37520;46.570;14.268;2022-09-17T17:20:09;95002.13;;;9.84;99.70
51449;BME280;37520;46.570;14.268;2022-09-17T17:26:53;95001.25;;;9.73;100.00
51449;BME280;37520;46.570;14.268;2022-09-17T17:33:34;95015.13;;;9.58;100.00
51449;BME280;37520;46.570;14.268;2022-09-17T17:40:17;95032.16;;;9.45;99.82
51449;BME280;37520;46.570;14.268;2022-09-17T17:46:58;95044.44;;;9.29;99.11
51449;BME280;37520;46.570;14.268;2022-09-17T17:53:43;95052.91;;;9.09;97.22
51449;BME280;37520;46.570;14.268;2022-09-17T18:00:24;95059.00;;;8.87;97.48
51449;BME280;37520;46.570;14.268;2022-09-17T18:07:05;95069.41;;;8.77;97.01
51449;BME280;37520;46.570;14.268;2022-09-17T18:13:52;95086.94;;;8.66;97.76
51449;BME280;37520;46.570;14.268;2022-09-17T18:20:37;95097.00;;;8.52;97.08
51449;BME280;37520;46.570;14.268;2022-09-17T18:27:18;95108.97;;;8.43;98.71
51449;BME280;37520;46.570;14.268;2022-09-17T18:34:02;95122.09;;;8.38;98.19
51449;BME280;37520;46.570;14.268;2022-09-17T18:40:43;95125.91;;;8.30;97.97
51449;BME280;37520;46.570;14.268;2022-09-17T18:47:24;95121.59;;;8.24;99.05
51449;BME280;37520;46.570;14.268;2022-09-17T18:54:07;95133.25;;;8.11;98.22
51449;BME280;37520;46.570;14.268;2022-09-17T19:00:49;95137.88;;;8.04;100.00
51449;BME280;37520;46.570;14.268;2022-09-17T19:07:31;95149.03;;;7.94;98.52
51449;BME280;37520;46.570;14.268;2022-09-17T19:14:12;95149.31;;;7.81;99.48
51449;BME280;37520;46.570;14.268;2022-09-17T19:21:00;95152.91;;;7.74;99.32
51449;BME280;37520;46.570;14.268;2022-09-17T19:27:42;95155.94;;;7.66;98.74
51449;BME280;37520;46.570;14.268;2022-09-17T19:34:24;95159.72;;;7.58;98.59
51449;BME280;37520;46.570;14.268;2022-09-17T19:41:08;95168.34;;;7.54;100.00
51449;BME280;37520;46.570;14.268;2022-09-17T19:47:50;95164.00;;;7.48;99.39
51449;BME280;37520;46.570;14.268;2022-09-17T19:54:36;95175.91;;;7.38;99.06
51449;BME280;37520;46.570;14.268;2022-09-17T20:01:17;95178.31;;;7.40;99.92
51449;BME280;37520;46.570;14.268;2022-09-17T20:08:00;95186.25;;;7.28;100.00
51449;BME280;37520;46.570;14.268;2022-09-17T20:14:42;95192.28;;;7.29;100.00
51449;BME280;37520;46.570;14.268;2022-09-17T20:21:25;95209.81;;;7.11;100.00
51449;BME280;37520;46.570;14.268;2022-09-17T20:28:08;95226.84;;;7.08;100.00
51449;BME280;37520;46.570;14.268;2022-09-17T20:34:49;95238.16;;;7.09;100.00
51449;BME280;37520;46.570;14.268;2022-09-17T20:41:31;95243.66;;;7.07;100.00
51449;BME280;37520;46.570;14.268;2022-09-17T20:48:12;95251.06;;;6.99;98.85
51449;BME280;37520;46.570;14.268;2022-09-17T20:54:53;95275.75;;;6.74;100.00
51449;BME280;37520;46.570;14.268;2022-09-17T21:01:35;95274.34;;;6.59;100.00
51449;BME280;37520;46.570;14.268;2022-09-17T21:08:17;95290.81;;;6.55;99.29
51449;BME280;37520;46.570;14.268;2022-09-17T21:14:58;95299.78;;;6.47;98.79
51449;BME280;37520;46.570;14.268;2022-09-17T21:21:39;95307.66;;;6.47;98.28
51449;BME280;37520;46.570;14.268;2022-09-17T21:28:20;95317.16;;;6.48;99.64
51449;BME280;37520;46.570;14.268;2022-09-17T21:35:03;95333.72;;;6.49;99.42
51449;BME280;37520;46.570;14.268;2022-09-17T21:41:45;95333.91;;;6.35;98.48
51449;BME280;37520;46.570;14.268;2022-09-17T21:48:29;95319.94;;;6.23;98.95
51449;BME280;37520;46.570;14.268;2022-09-17T21:55:11;95323.81;;;6.20;97.29
51449;BME280;37520;46.570;14.268;2022-09-17T22:01:52;95331.38;;;6.10;96.63
51449;BME280;37520;46.570;14.268;2022-09-17T22:08:34;95318.72;;;6.07;97.22
51449;BME280;37520;46.570;14.268;2022-09-17T22:15:15;95297.38;;;5.85;97.99
51449;BME280;37520;46.570;14.268;2022-09-17T22:21:56;95293.97;;;5.65;100.00
51449;BME280;37520;46.570;14.268;2022-09-17T22:28:37;95304.00;;;5.69;100.00
51449;BME280;37520;46.570;14.268;2022-09-17T22:35:19;95289.94;;;5.81;100.00
51449;BME280;37520;46.570;14.268;2022-09-17T22:42:00;95304.22;;;5.86;100.00
51449;BME280;37520;46.570;14.268;2022-09-17T22:48:41;95299.53;;;5.88;100.00
51449;BME280;37520;46.570;14.268;2022-09-17T22:55:23;95298.16;;;5.85;99.78
51449;BME280;37520;46.570;14.268;2022-09-17T23:02:04;95292.00;;;5.79;98.73
51449;BME280;37520;46.570;14.268;2022-09-17T23:08:45;95295.63;;;5.78;98.25
51449;BME280;37520;46.570;14.268;2022-09-17T23:15:26;95296.28;;;5.74;98.98
51449;BME280;37520;46.570;14.268;2022-09-17T23:22:08;95300.97;;;5.72;100.00
51449;BME280;37520;46.570;14.268;2022-09-17T23:28:50;95288.50;;;5.67;98.43
51449;BME280;37520;46.570;14.268;2022-09-17T23:35:32;95276.41;;;5.66;99.74
51449;BME280;37520;46.570;14.268;2022-09-17T23:42:14;95260.91;;;5.46;99.81
51449;BME280;37520;46.570;14.268;2022-09-17T23:48:56;95268.09;;;5.32;99.89
51449;BME280;37520;46.570;14.268;2022-09-17T23:55:45;95291.69;;;5.32;99.35
